sensor_id;sensor_type;location;lat;lon;timestamp;P1;durP1;ratioP1;P2;durP2;ratioP2
3567;SDS011;1798;48.486;9.232;2024-01-30T00:01:52;14.90;;;9.67;;
3567;SDS011;1798;48.486;9.232;2024-01-30T00:04:18;21.23;;;10.33;;
3567;SDS011;1798;48.486;9.232;2024-01-30T00:06:46;16.10;;;10.43;;
3567;SDS011;1798;48.486;9.232;2024-01-30T00:09:13;23.33;;;12.90;;
3567;SDS011;1798;48.486;9.232;2024-01-30T00:11:40;28.90;;;11.50;;
3567;SDS011;1798;48.486;9.232;2024-01-30T00:14:06;27.90;;;11.10;;
3567;SDS011;1798;48.486;9.232;2024-01-30T00:16:33;20.67;;;11.57;;
3567;SDS011;1798;48.486;9.232;2024-01-30T00:18:59;21.87;;;11.30;;
3567;SDS011;1798;48.486;9.232;2024-01-30T00:21:27;24.00;;;12.17;;
3567;SDS011;1798;48.486;9.232;2024-01-30T00:23:55;19.83;;;11.20;;
3567;SDS011;1798;48.486;9.232;2024-01-30T00:26:22;24.87;;;10.50;;
3567;SDS011;1798;48.486;9.232;2024-01-30T00:28:48;22.40;;;11.83;;
3567;SDS011;1798;48.486;9.232;2024-01-30T00:31:15;27.07;;;11.50;;
3567;SDS011;1798;48.486;9.232;2024-01-30T00:33:41;24.67;;;11.90;;
3567;SDS011;1798;48.486;9.232;2024-01-30T00:36:08;22.80;;;10.83;;
3567;SDS011;1798;48.486;9.232;2024-01-30T00:38:35;21.33;;;12.17;;
3567;SDS011;1798;48.486;9.232;2024-01-30T00:41:03;26.60;;;10.93;;
3567;SDS011;1798;48.486;9.232;2024-01-30T00:43:30;31.13;;;12.33;;
3567;SDS011;1798;48.486;9.232;2024-01-30T00:45:57;22.63;;;11.47;;
3567;SDS011;1798;48.486;9.232;2024-01-30T00:48:24;21.33;;;11.13;;
3567;SDS011;1798;48.486;9.232;2024-01-30T00:50:50;22.13;;;11.70;;
3567;SDS011;1798;48.486;9.232;2024-01-30T00:53:17;27.23;;;11.40;;
3567;SDS011;1798;48.486;9.232;2024-01-30T00:55:44;23.43;;;12.40;;
3567;SDS011;1798;48.486;9.232;2024-01-30T00:58:11;20.10;;;9.87;;
3567;SDS011;1798;48.486;9.232;2024-01-30T01:00:38;23.00;;;11.50;;
3567;SDS011;1798;48.486;9.232;2024-01-30T01:03:05;23.20;;;12.17;;
3567;SDS011;1798;48.486;9.232;2024-01-30T01:05:31;39.13;;;10.43;;
3567;SDS011;1798;48.486;9.232;2024-01-30T01:07:58;18.70;;;10.73;;
3567;SDS011;1798;48.486;9.232;2024-01-30T01:10:25;27.53;;;12.43;;
3567;SDS011;1798;48.486;9.232;2024-01-30T01:12:52;21.33;;;11.27;;
3567;SDS011;1798;48.486;9.232;2024-01-30T01:15:20;23.97;;;11.13;;
3567;SDS011;1798;48.486;9.232;2024-01-30T01:17:46;23.10;;;11.87;;
3567;SDS011;1798;48.486;9.232;2024-01-30T01:20:14;26.70;;;12.40;;
3567;SDS011;1798;48.486;9.232;2024-01-30T01:22:40;33.13;;;12.80;;
3567;SDS011;1798;48.486;9.232;2024-01-30T01:25:08;19.23;;;11.23;;
3567;SDS011;1798;48.486;9.232;2024-01-30T01:27:35;23.60;;;11.53;;
3567;SDS011;1798;48.486;9.232;2024-01-30T01:30:06;24.07;;;11.93;;
3567;SDS011;1798;48.486;9.232;2024-01-30T01:32:36;20.23;;;9.70;;
3567;SDS011;1798;48.486;9.232;2024-01-30T01:35:03;20.30;;;11.17;;
3567;SDS011;1798;48.486;9.232;2024-01-30T01:37:31;17.43;;;11.30;;
3567;SDS011;1798;48.486;9.232;2024-01-30T01:39:57;25.23;;;9.13;;
3567;SDS011;1798;48.486;9.232;2024-01-30T01:42:24;16.37;;;9.90;;
3567;SDS011;1798;48.486;9.232;2024-01-30T01:44:51;19.13;;;9.30;;
3567;SDS011;1798;48.486;9.232;2024-01-30T01:47:17;14.73;;;8.23;;
3567;SDS011;1798;48.486;9.232;2024-01-30T01:49:45;16.80;;;10.37;;
3567;SDS011;1798;48.486;9.232;2024-01-30T01:52:12;18.33;;;10.80;;
3567;SDS011;1798;48.486;9.232;2024-01-30T01:54:38;17.60;;;9.77;;
3567;SDS011;1798;48.486;9.232;2024-01-30T01:57:05;20.53;;;10.93;;
3567;SDS011;1798;48.486;9.232;2024-01-30T01:59:32;21.93;;;10.73;;
3567;SDS011;1798;48.486;9.232;2024-01-30T02:01:58;19.93;;;10.33;;
3567;SDS011;1798;48.486;9.232;2024-01-30T02:04:26;15.80;;;9.70;;
3567;SDS011;1798;48.486;9.232;2024-01-30T02:06:53;22.20;;;8.97;;
3567;SDS011;1798;48.486;9.232;2024-01-30T02:09:20;18.50;;;9.53;;
3567;SDS011;1798;48.486;9.232;2024-01-30T02:11:47;17.00;;;9.50;;
3567;SDS011;1798;48.486;9.232;2024-01-30T02:14:13;16.33;;;8.47;;
3567;SDS011;1798;48.486;9.232;2024-01-30T02:16:40;15.73;;;8.30;;
3567;SDS011;1798;48.486;9.232;2024-01-30T02:19:07;20.50;;;9.03;;
3567;SDS011;1798;48.486;9.232;2024-01-30T02:21:35;14.13;;;8.60;;
3567;SDS011;1798;48.486;9.232;2024-01-30T02:24:02;15.73;;;8.53;;
3567;SDS011;1798;48.486;9.232;2024-01-30T02:26:29;21.53;;;8.87;;
3567;SDS011;1798;48.486;9.232;2024-01-30T02:28:55;14.10;;;8.87;;
3567;SDS011;1798;48.486;9.232;2024-01-30T02:31:22;17.50;;;9.13;;
3567;SDS011;1798;48.486;9.232;2024-01-30T02:33:49;21.60;;;8.23;;
3567;SDS011;1798;48.486;9.232;2024-01-30T02:36:15;15.53;;;8.10;;
3567;SDS011;1798;48.486;9.232;2024-01-30T02:38:43;22.63;;;8.23;;
3567;SDS011;1798;48.486;9.232;2024-01-30T02:41:11;17.90;;;7.10;;
3567;SDS011;1798;48.486;9.232;2024-01-30T02:43:38;20.70;;;8.80;;
3567;SDS011;1798;48.486;9.232;2024-01-30T02:46:04;14.83;;;8.30;;
3567;SDS011;1798;48.486;9.232;2024-01-30T02:48:31;18.93;;;7.03;;
3567;SDS011;1798;48.486;9.232;2024-01-30T02:50:57;12.80;;;7.90;;
3567;SDS011;1798;48.486;9.232;2024-01-30T02:53:24;12.70;;;7.70;;
3567;SDS011;1798;48.486;9.232;2024-01-30T02:55:52;13.30;;;7.50;;
3567;SDS011;1798;48.486;9.232;2024-01-30T02:58:18;11.30;;;7.00;;
3567;SDS011;1798;48.486;9.232;2024-01-30T03:00:45;11.77;;;7.37;;
3567;SDS011;1798;48.486;9.232;2024-01-30T03:03:11;13.33;;;7.93;;
3567;SDS011;1798;48.486;9.232;2024-01-30T03:05:38;13.67;;;9.00;;
3567;SDS011;1798;48.486;9.232;2024-01-30T03:08:05;16.43;;;7.37;;
3567;SDS011;1798;48.486;9.232;2024-01-30T03:10:32;13.00;;;6.40;;
3567;SDS011;1798;48.486;9.232;2024-01-30T03:12:59;12.73;;;5.97;;
3567;SDS011;1798;48.486;9.232;2024-01-30T03:15:26;12.23;;;6.90;;
3567;SDS011;1798;48.486;9.232;2024-01-30T03:17:53;8.93;;;5.30;;
3567;SDS011;1798;48.486;9.232;2024-01-30T03:20:19;9.83;;;5.73;;
3567;SDS011;1798;48.486;9.232;2024-01-30T03:22:46;11.03;;;6.17;;
3567;SDS011;1798;48.486;9.232;2024-01-30T03:25:12;14.67;;;6.37;;
3567;SDS011;1798;48.486;9.232;2024-01-30T03:27:39;9.70;;;5.40;;
3567;SDS011;1798;48.486;9.232;2024-01-30T03:30:08;9.40;;;5.77;;
3567;SDS011;1798;48.486;9.232;2024-01-30T03:32:35;13.33;;;5.80;;
3567;SDS011;1798;48.486;9.232;2024-01-30T03:35:02;9.97;;;5.20;;
3567;SDS011;1798;48.486;9.232;2024-01-30T03:37:29;12.60;;;6.20;;
3567;SDS011;1798;48.486;9.232;2024-01-30T03:39:55;13.43;;;7.23;;
3567;SDS011;1798;48.486;9.232;2024-01-30T03:42:22;9.63;;;6.00;;
3567;SDS011;1798;48.486;9.232;2024-01-30T03:44:48;12.80;;;6.97;;
3567;SDS011;1798;48.486;9.232;2024-01-30T03:47:18;11.50;;;6.60;;
3567;SDS011;1798;48.486;9.232;2024-01-30T03:49:45;14.30;;;8.50;;
3567;SDS011;1798;48.486;9.232;2024-01-30T03:52:11;15.50;;;7.10;;
3567;SDS011;1798;48.486;9.232;2024-01-30T03:54:38;14.00;;;6.93;;
3567;SDS011;1798;48.486;9.232;2024-01-30T03:57:05;13.27;;;6.77;;
3567;SDS011;1798;48.486;9.232;2024-01-30T03:59:31;15.47;;;7.30;;
3567;SDS011;1798;48.486;9.232;2024-01-30T04:01:58;9.37;;;6.20;;
3567;SDS011;1798;48.486;9.232;2024-01-30T04:04:26;14.30;;;7.30;;
3567;SDS011;1798;48.486;9.232;2024-01-30T04:06:52;11.23;;;7.60;;
3567;SDS011;1798;48.486;9.232;2024-01-30T04:09:19;14.00;;;7.73;;
3567;SDS011;1798;48.486;9.232;2024-01-30T04:11:46;13.60;;;6.87;;
3567;SDS011;1798;48.486;9.232;2024-01-30T04:14:11;15.97;;;7.07;;
3567;SDS011;1798;48.486;9.232;2024-01-30T04:16:38;13.80;;;7.40;;
3567;SDS011;1798;48.486;9.232;2024-01-30T04:19:04;13.80;;;6.83;;
3567;SDS011;1798;48.486;9.232;2024-01-30T04:21:32;16.00;;;8.13;;
3567;SDS011;1798;48.486;9.232;2024-01-30T04:23:58;13.87;;;6.77;;
3567;SDS011;1798;48.486;9.232;2024-01-30T04:26:25;14.97;;;8.93;;
3567;SDS011;1798;48.486;9.232;2024-01-30T04:28:52;13.70;;;7.83;;
3567;SDS011;1798;48.486;9.232;2024-01-30T04:31:18;13.70;;;7.70;;
3567;SDS011;1798;48.486;9.232;2024-01-30T04:33:45;18.30;;;9.53;;
3567;SDS011;1798;48.486;9.232;2024-01-30T04:36:11;12.47;;;8.07;;
3567;SDS011;1798;48.486;9.232;2024-01-30T04:38:39;16.83;;;7.10;;
3567;SDS011;1798;48.486;9.232;2024-01-30T04:41:06;15.53;;;7.03;;
3567;SDS011;1798;48.486;9.232;2024-01-30T04:43:33;17.10;;;7.33;;
3567;SDS011;1798;48.486;9.232;2024-01-30T04:45:59;17.83;;;6.77;;
3567;SDS011;1798;48.486;9.232;2024-01-30T04:48:26;13.80;;;7.73;;
3567;SDS011;1798;48.486;9.232;2024-01-30T04:50:53;21.23;;;8.63;;
3567;SDS011;1798;48.486;9.232;2024-01-30T04:53:21;14.63;;;8.30;;
3567;SDS011;1798;48.486;9.232;2024-01-30T04:55:49;16.20;;;8.73;;
3567;SDS011;1798;48.486;9.232;2024-01-30T04:58:15;24.63;;;7.57;;
3567;SDS011;1798;48.486;9.232;2024-01-30T05:00:42;14.20;;;8.37;;
3567;SDS011;1798;48.486;9.232;2024-01-30T05:03:08;16.27;;;9.23;;
3567;SDS011;1798;48.486;9.232;2024-01-30T05:05:35;22.90;;;7.70;;
3567;SDS011;1798;48.486;9.232;2024-01-30T05:08:02;14.10;;;7.40;;
3567;SDS011;1798;48.486;9.232;2024-01-30T05:10:29;16.07;;;8.50;;
3567;SDS011;1798;48.486;9.232;2024-01-30T05:12:57;23.97;;;8.90;;
3567;SDS011;1798;48.486;9.232;2024-01-30T05:15:23;16.33;;;8.27;;
3567;SDS011;1798;48.486;9.232;2024-01-30T05:17:50;17.53;;;8.70;;
3567;SDS011;1798;48.486;9.232;2024-01-30T05:20:17;18.70;;;8.90;;
3567;SDS011;1798;48.486;9.232;2024-01-30T05:22:43;15.37;;;8.97;;
3567;SDS011;1798;48.486;9.232;2024-01-30T05:25:11;22.63;;;10.27;;
3567;SDS011;1798;48.486;9.232;2024-01-30T05:27:38;15.70;;;7.97;;
3567;SDS011;1798;48.486;9.232;2024-01-30T05:30:07;17.23;;;8.53;;
3567;SDS011;1798;48.486;9.232;2024-01-30T05:32:34;15.93;;;8.40;;
3567;SDS011;1798;48.486;9.232;2024-01-30T05:35:01;14.63;;;7.97;;
3567;SDS011;1798;48.486;9.232;2024-01-30T05:37:28;16.80;;;8.50;;
3567;SDS011;1798;48.486;9.232;2024-01-30T05:39:54;16.37;;;8.77;;
3567;SDS011;1798;48.486;9.232;2024-01-30T05:42:21;13.90;;;8.47;;
3567;SDS011;1798;48.486;9.232;2024-01-30T05:44:47;19.20;;;8.00;;
3567;SDS011;1798;48.486;9.232;2024-01-30T05:47:15;15.23;;;8.97;;
3567;SDS011;1798;48.486;9.232;2024-01-30T05:49:42;15.80;;;7.80;;
3567;SDS011;1798;48.486;9.232;2024-01-30T05:52:08;10.47;;;7.37;;
3567;SDS011;1798;48.486;9.232;2024-01-30T05:54:35;10.73;;;6.90;;
3567;SDS011;1798;48.486;9.232;2024-01-30T05:57:02;22.13;;;8.57;;
3567;SDS011;1798;48.486;9.232;2024-01-30T05:59:29;15.27;;;8.60;;
3567;SDS011;1798;48.486;9.232;2024-01-30T06:01:55;14.50;;;7.20;;
3567;SDS011;1798;48.486;9.232;2024-01-30T06:04:24;17.47;;;8.43;;
3567;SDS011;1798;48.486;9.232;2024-01-30T06:06:50;12.30;;;7.20;;
3567;SDS011;1798;48.486;9.232;2024-01-30T06:09:17;17.43;;;6.57;;
3567;SDS011;1798;48.486;9.232;2024-01-30T06:11:44;9.90;;;5.90;;
3567;SDS011;1798;48.486;9.232;2024-01-30T06:14:11;18.80;;;5.90;;
3567;SDS011;1798;48.486;9.232;2024-01-30T06:16:38;15.43;;;7.97;;
3567;SDS011;1798;48.486;9.232;2024-01-30T06:19:04;11.77;;;7.17;;
3567;SDS011;1798;48.486;9.232;2024-01-30T06:21:32;11.00;;;5.53;;
3567;SDS011;1798;48.486;9.232;2024-01-30T06:24:01;12.90;;;6.27;;
3567;SDS011;1798;48.486;9.232;2024-01-30T06:26:28;15.27;;;7.37;;
3567;SDS011;1798;48.486;9.232;2024-01-30T06:28:54;14.73;;;5.80;;
3567;SDS011;1798;48.486;9.232;2024-01-30T06:31:21;12.07;;;5.30;;
3567;SDS011;1798;48.486;9.232;2024-01-30T06:33:49;10.10;;;6.20;;
3567;SDS011;1798;48.486;9.232;2024-01-30T06:36:16;10.63;;;6.20;;
3567;SDS011;1798;48.486;9.232;2024-01-30T06:38:44;14.00;;;7.33;;
3567;SDS011;1798;48.486;9.232;2024-01-30T06:41:10;17.83;;;8.57;;
3567;SDS011;1798;48.486;9.232;2024-01-30T06:43:37;18.53;;;10.23;;
3567;SDS011;1798;48.486;9.232;2024-01-30T06:46:03;16.90;;;8.87;;
3567;SDS011;1798;48.486;9.232;2024-01-30T06:48:30;23.00;;;8.13;;
3567;SDS011;1798;48.486;9.232;2024-01-30T06:50:56;14.80;;;7.20;;
3567;SDS011;1798;48.486;9.232;2024-01-30T06:53:23;16.73;;;8.23;;
3567;SDS011;1798;48.486;9.232;2024-01-30T06:55:52;18.17;;;8.17;;
3567;SDS011;1798;48.486;9.232;2024-01-30T06:58:19;15.10;;;8.17;;
3567;SDS011;1798;48.486;9.232;2024-01-30T07:00:46;16.50;;;9.60;;
3567;SDS011;1798;48.486;9.232;2024-01-30T07:03:12;19.40;;;10.87;;
3567;SDS011;1798;48.486;9.232;2024-01-30T07:05:39;20.17;;;8.90;;
3567;SDS011;1798;48.486;9.232;2024-01-30T07:08:08;16.53;;;8.83;;
3567;SDS011;1798;48.486;9.232;2024-01-30T07:10:35;16.90;;;8.90;;
3567;SDS011;1798;48.486;9.232;2024-01-30T07:13:03;17.80;;;9.03;;
3567;SDS011;1798;48.486;9.232;2024-01-30T07:15:34;27.63;;;8.67;;
3567;SDS011;1798;48.486;9.232;2024-01-30T07:18:01;14.63;;;7.77;;
3567;SDS011;1798;48.486;9.232;2024-01-30T07:20:28;14.23;;;7.63;;
3567;SDS011;1798;48.486;9.232;2024-01-30T07:22:58;11.33;;;6.87;;
3567;SDS011;1798;48.486;9.232;2024-01-30T07:25:25;24.20;;;9.73;;
3567;SDS011;1798;48.486;9.232;2024-01-30T07:27:54;25.30;;;11.90;;
3567;SDS011;1798;48.486;9.232;2024-01-30T07:30:24;15.57;;;9.57;;
3567;SDS011;1798;48.486;9.232;2024-01-30T07:32:51;24.43;;;9.90;;
3567;SDS011;1798;48.486;9.232;2024-01-30T07:35:18;22.37;;;10.20;;
3567;SDS011;1798;48.486;9.232;2024-01-30T07:37:44;15.63;;;7.80;;
3567;SDS011;1798;48.486;9.232;2024-01-30T07:40:11;9.47;;;6.37;;
3567;SDS011;1798;48.486;9.232;2024-01-30T07:42:37;15.87;;;7.57;;
3567;SDS011;1798;48.486;9.232;2024-01-30T07:45:04;17.63;;;7.00;;
3567;SDS011;1798;48.486;9.232;2024-01-30T07:47:33;15.30;;;7.90;;
3567;SDS011;1798;48.486;9.232;2024-01-30T07:50:00;18.80;;;9.00;;
3567;SDS011;1798;48.486;9.232;2024-01-30T07:52:27;17.90;;;9.67;;
3567;SDS011;1798;48.486;9.232;2024-01-30T07:54:53;18.47;;;9.70;;
3567;SDS011;1798;48.486;9.232;2024-01-30T07:57:20;32.23;;;12.10;;
3567;SDS011;1798;48.486;9.232;2024-01-30T07:59:47;16.60;;;8.90;;
3567;SDS011;1798;48.486;9.232;2024-01-30T08:02:13;23.87;;;10.90;;
3567;SDS011;1798;48.486;9.232;2024-01-30T08:04:41;16.07;;;9.50;;
3567;SDS011;1798;48.486;9.232;2024-01-30T08:07:08;18.63;;;9.60;;
3567;SDS011;1798;48.486;9.232;2024-01-30T08:09:35;30.57;;;10.63;;
3567;SDS011;1798;48.486;9.232;2024-01-30T08:12:02;24.03;;;10.37;;
3567;SDS011;1798;48.486;9.232;2024-01-30T08:14:28;19.40;;;11.93;;
3567;SDS011;1798;48.486;9.232;2024-01-30T08:16:55;20.37;;;10.77;;
3567;SDS011;1798;48.486;9.232;2024-01-30T08:19:22;20.00;;;10.77;;
3567;SDS011;1798;48.486;9.232;2024-01-30T08:21:50;19.13;;;10.10;;
3567;SDS011;1798;48.486;9.232;2024-01-30T08:24:17;22.70;;;11.00;;
3567;SDS011;1798;48.486;9.232;2024-01-30T08:26:43;13.53;;;8.73;;
3567;SDS011;1798;48.486;9.232;2024-01-30T08:29:10;29.03;;;11.00;;
3567;SDS011;1798;48.486;9.232;2024-01-30T08:31:37;21.37;;;10.63;;
3567;SDS011;1798;48.486;9.232;2024-01-30T08:34:03;13.73;;;7.13;;
3567;SDS011;1798;48.486;9.232;2024-01-30T08:36:30;11.60;;;7.90;;
3567;SDS011;1798;48.486;9.232;2024-01-30T08:38:58;20.00;;;12.03;;
3567;SDS011;1798;48.486;9.232;2024-01-30T08:41:24;30.27;;;12.83;;
3567;SDS011;1798;48.486;9.232;2024-01-30T08:43:51;36.53;;;13.33;;
3567;SDS011;1798;48.486;9.232;2024-01-30T08:46:18;26.20;;;13.10;;
3567;SDS011;1798;48.486;9.232;2024-01-30T08:48:45;46.17;;;11.67;;
3567;SDS011;1798;48.486;9.232;2024-01-30T08:51:12;28.53;;;12.30;;
3567;SDS011;1798;48.486;9.232;2024-01-30T08:53:40;41.83;;;11.30;;
3567;SDS011;1798;48.486;9.232;2024-01-30T08:56:08;22.43;;;11.00;;
3567;SDS011;1798;48.486;9.232;2024-01-30T08:58:35;21.60;;;11.60;;
3567;SDS011;1798;48.486;9.232;2024-01-30T09:01:01;47.37;;;13.27;;
3567;SDS011;1798;48.486;9.232;2024-01-30T09:03:30;24.53;;;12.73;;
3567;SDS011;1798;48.486;9.232;2024-01-30T09:05:56;25.20;;;8.53;;
3567;SDS011;1798;48.486;9.232;2024-01-30T09:08:23;12.13;;;7.73;;
3567;SDS011;1798;48.486;9.232;2024-01-30T09:10:50;13.53;;;6.73;;
3567;SDS011;1798;48.486;9.232;2024-01-30T09:13:18;31.83;;;15.00;;
3567;SDS011;1798;48.486;9.232;2024-01-30T09:15:44;24.90;;;9.53;;
3567;SDS011;1798;48.486;9.232;2024-01-30T09:18:11;49.10;;;15.60;;
3567;SDS011;1798;48.486;9.232;2024-01-30T09:20:37;29.50;;;14.73;;
3567;SDS011;1798;48.486;9.232;2024-01-30T09:23:04;18.27;;;8.27;;
3567;SDS011;1798;48.486;9.232;2024-01-30T09:25:31;36.10;;;15.60;;
3567;SDS011;1798;48.486;9.232;2024-01-30T09:27:59;37.93;;;16.40;;
3567;SDS011;1798;48.486;9.232;2024-01-30T09:30:30;23.00;;;9.73;;
3567;SDS011;1798;48.486;9.232;2024-01-30T09:32:56;38.03;;;15.27;;
3567;SDS011;1798;48.486;9.232;2024-01-30T09:35:23;18.97;;;9.80;;
3567;SDS011;1798;48.486;9.232;2024-01-30T09:37:50;13.87;;;7.60;;
3567;SDS011;1798;48.486;9.232;2024-01-30T09:40:18;33.73;;;11.23;;
3567;SDS011;1798;48.486;9.232;2024-01-30T09:42:46;52.47;;;13.80;;
3567;SDS011;1798;48.486;9.232;2024-01-30T09:45:13;26.80;;;15.20;;
3567;SDS011;1798;48.486;9.232;2024-01-30T09:47:42;16.30;;;9.50;;
3567;SDS011;1798;48.486;9.232;2024-01-30T09:50:09;19.53;;;8.83;;
3567;SDS011;1798;48.486;9.232;2024-01-30T09:52:36;19.97;;;10.50;;
3567;SDS011;1798;48.486;9.232;2024-01-30T09:55:03;14.53;;;8.30;;
3567;SDS011;1798;48.486;9.232;2024-01-30T09:57:30;27.67;;;15.10;;
3567;SDS011;1798;48.486;9.232;2024-01-30T09:59:57;13.20;;;8.00;;
3567;SDS011;1798;48.486;9.232;2024-01-30T10:02:23;17.53;;;9.80;;
3567;SDS011;1798;48.486;9.232;2024-01-30T10:04:52;20.10;;;11.63;;
3567;SDS011;1798;48.486;9.232;2024-01-30T10:07:18;15.77;;;9.10;;
3567;SDS011;1798;48.486;9.232;2024-01-30T10:09:46;29.27;;;15.13;;
3567;SDS011;1798;48.486;9.232;2024-01-30T10:12:14;14.70;;;8.73;;
3567;SDS011;1798;48.486;9.232;2024-01-30T10:14:41;20.57;;;10.60;;
3567;SDS011;1798;48.486;9.232;2024-01-30T10:17:09;25.13;;;14.77;;
3567;SDS011;1798;48.486;9.232;2024-01-30T10:19:36;18.37;;;9.53;;
3567;SDS011;1798;48.486;9.232;2024-01-30T10:22:04;35.77;;;15.10;;
3567;SDS011;1798;48.486;9.232;2024-01-30T10:24:32;29.50;;;9.50;;
3567;SDS011;1798;48.486;9.232;2024-01-30T10:26:59;18.23;;;9.73;;
3567;SDS011;1798;48.486;9.232;2024-01-30T10:29:26;37.50;;;10.83;;
3567;SDS011;1798;48.486;9.232;2024-01-30T10:31:59;18.03;;;8.40;;
3567;SDS011;1798;48.486;9.232;2024-01-30T10:34:26;19.83;;;9.10;;
3567;SDS011;1798;48.486;9.232;2024-01-30T10:36:59;19.30;;;9.67;;
3567;SDS011;1798;48.486;9.232;2024-01-30T10:39:30;55.33;;;19.33;;
3567;SDS011;1798;48.486;9.232;2024-01-30T10:41:59;39.57;;;17.57;;
3567;SDS011;1798;48.486;9.232;2024-01-30T10:44:33;34.63;;;16.80;;
3567;SDS011;1798;48.486;9.232;2024-01-30T10:47:05;35.00;;;15.80;;
3567;SDS011;1798;48.486;9.232;2024-01-30T10:49:33;29.90;;;15.83;;
3567;SDS011;1798;48.486;9.232;2024-01-30T10:52:00;29.50;;;16.40;;
3567;SDS011;1798;48.486;9.232;2024-01-30T10:54:27;40.10;;;15.43;;
3567;SDS011;1798;48.486;9.232;2024-01-30T10:56:56;30.30;;;15.90;;
3567;SDS011;1798;48.486;9.232;2024-01-30T10:59:24;27.77;;;15.40;;
3567;SDS011;1798;48.486;9.232;2024-01-30T11:01:51;36.93;;;16.13;;
3567;SDS011;1798;48.486;9.232;2024-01-30T11:04:18;42.30;;;16.90;;
3567;SDS011;1798;48.486;9.232;2024-01-30T11:06:46;30.43;;;14.53;;
3567;SDS011;1798;48.486;9.232;2024-01-30T11:09:16;27.20;;;14.40;;
3567;SDS011;1798;48.486;9.232;2024-01-30T11:11:49;38.07;;;17.57;;
3567;SDS011;1798;48.486;9.232;2024-01-30T11:14:16;27.53;;;16.00;;
3567;SDS011;1798;48.486;9.232;2024-01-30T11:16:43;33.30;;;14.93;;
3567;SDS011;1798;48.486;9.232;2024-01-30T11:19:10;48.43;;;17.97;;
3567;SDS011;1798;48.486;9.232;2024-01-30T11:21:40;27.57;;;15.50;;
3567;SDS011;1798;48.486;9.232;2024-01-30T11:24:07;24.97;;;15.20;;
3567;SDS011;1798;48.486;9.232;2024-01-30T11:26:34;30.87;;;15.60;;
3567;SDS011;1798;48.486;9.232;2024-01-30T11:29:07;42.03;;;17.20;;
3567;SDS011;1798;48.486;9.232;2024-01-30T11:31:34;26.30;;;14.80;;
3567;SDS011;1798;48.486;9.232;2024-01-30T11:34:01;30.73;;;15.77;;
3567;SDS011;1798;48.486;9.232;2024-01-30T11:36:27;23.73;;;13.03;;
3567;SDS011;1798;48.486;9.232;2024-01-30T11:38:55;34.23;;;14.80;;
3567;SDS011;1798;48.486;9.232;2024-01-30T11:41:21;21.07;;;12.80;;
3567;SDS011;1798;48.486;9.232;2024-01-30T11:43:51;20.43;;;11.13;;
3567;SDS011;1798;48.486;9.232;2024-01-30T11:46:20;18.93;;;10.93;;
3567;SDS011;1798;48.486;9.232;2024-01-30T11:48:46;24.87;;;13.57;;
3567;SDS011;1798;48.486;9.232;2024-01-30T11:51:15;25.00;;;15.00;;
3567;SDS011;1798;48.486;9.232;2024-01-30T11:53:44;21.27;;;13.27;;
3567;SDS011;1798;48.486;9.232;2024-01-30T11:56:12;26.63;;;13.90;;
3567;SDS011;1798;48.486;9.232;2024-01-30T11:58:42;36.67;;;15.87;;
3567;SDS011;1798;48.486;9.232;2024-01-30T12:01:08;24.17;;;13.60;;
3567;SDS011;1798;48.486;9.232;2024-01-30T12:03:36;19.97;;;11.93;;
3567;SDS011;1798;48.486;9.232;2024-01-30T12:06:03;26.00;;;9.03;;
3567;SDS011;1798;48.486;9.232;2024-01-30T12:08:31;11.20;;;6.40;;
3567;SDS011;1798;48.486;9.232;2024-01-30T12:10:58;24.20;;;7.60;;
3567;SDS011;1798;48.486;9.232;2024-01-30T12:13:26;15.23;;;7.40;;
3567;SDS011;1798;48.486;9.232;2024-01-30T12:15:53;18.00;;;7.83;;
3567;SDS011;1798;48.486;9.232;2024-01-30T12:18:20;16.67;;;7.53;;
3567;SDS011;1798;48.486;9.232;2024-01-30T12:20:57;13.07;;;7.00;;
3567;SDS011;1798;48.486;9.232;2024-01-30T12:23:24;13.80;;;7.00;;
3567;SDS011;1798;48.486;9.232;2024-01-30T12:25:51;11.43;;;6.87;;
3567;SDS011;1798;48.486;9.232;2024-01-30T12:28:19;11.07;;;7.00;;
3567;SDS011;1798;48.486;9.232;2024-01-30T12:30:45;14.83;;;7.23;;
3567;SDS011;1798;48.486;9.232;2024-01-30T12:33:15;11.77;;;5.80;;
3567;SDS011;1798;48.486;9.232;2024-01-30T12:35:45;11.13;;;6.83;;
3567;SDS011;1798;48.486;9.232;2024-01-30T12:38:13;11.90;;;6.77;;
3567;SDS011;1798;48.486;9.232;2024-01-30T12:40:40;37.67;;;8.30;;
3567;SDS011;1798;48.486;9.232;2024-01-30T12:43:07;16.80;;;6.97;;
3567;SDS011;1798;48.486;9.232;2024-01-30T12:45:33;9.43;;;5.17;;
3567;SDS011;1798;48.486;9.232;2024-01-30T12:48:00;13.53;;;7.20;;
3567;SDS011;1798;48.486;9.232;2024-01-30T12:50:27;13.53;;;8.07;;
3567;SDS011;1798;48.486;9.232;2024-01-30T12:52:54;16.33;;;6.60;;
3567;SDS011;1798;48.486;9.232;2024-01-30T12:55:33;15.00;;;6.83;;
3567;SDS011;1798;48.486;9.232;2024-01-30T12:57:59;15.63;;;6.17;;
3567;SDS011;1798;48.486;9.232;2024-01-30T13:00:26;11.80;;;5.97;;
3567;SDS011;1798;48.486;9.232;2024-01-30T13:02:52;14.63;;;6.13;;
3567;SDS011;1798;48.486;9.232;2024-01-30T13:05:19;22.47;;;7.43;;
3567;SDS011;1798;48.486;9.232;2024-01-30T13:07:46;18.87;;;6.20;;
3567;SDS011;1798;48.486;9.232;2024-01-30T13:10:12;15.63;;;7.10;;
3567;SDS011;1798;48.486;9.232;2024-01-30T13:12:40;21.40;;;7.17;;
3567;SDS011;1798;48.486;9.232;2024-01-30T13:15:07;9.60;;;5.80;;
3567;SDS011;1798;48.486;9.232;2024-01-30T13:17:36;10.60;;;6.40;;
3567;SDS011;1798;48.486;9.232;2024-01-30T13:20:03;17.07;;;6.50;;
3567;SDS011;1798;48.486;9.232;2024-01-30T13:22:31;11.20;;;5.97;;
3567;SDS011;1798;48.486;9.232;2024-01-30T13:24:57;12.03;;;6.03;;
3567;SDS011;1798;48.486;9.232;2024-01-30T13:27:24;28.73;;;6.80;;
3567;SDS011;1798;48.486;9.232;2024-01-30T13:29:54;15.07;;;7.13;;
3567;SDS011;1798;48.486;9.232;2024-01-30T13:32:21;18.13;;;7.10;;
3567;SDS011;1798;48.486;9.232;2024-01-30T13:34:48;13.67;;;6.63;;
3567;SDS011;1798;48.486;9.232;2024-01-30T13:37:14;12.20;;;6.97;;
3567;SDS011;1798;48.486;9.232;2024-01-30T13:39:41;11.30;;;7.37;;
3567;SDS011;1798;48.486;9.232;2024-01-30T13:42:07;13.07;;;6.67;;
3567;SDS011;1798;48.486;9.232;2024-01-30T13:44:34;11.57;;;6.90;;
3567;SDS011;1798;48.486;9.232;2024-01-30T13:47:04;14.77;;;6.40;;
3567;SDS011;1798;48.486;9.232;2024-01-30T13:49:33;11.40;;;6.83;;
3567;SDS011;1798;48.486;9.232;2024-01-30T13:51:59;13.40;;;7.03;;
3567;SDS011;1798;48.486;9.232;2024-01-30T13:54:26;15.57;;;8.33;;
3567;SDS011;1798;48.486;9.232;2024-01-30T13:56:53;11.83;;;6.97;;
3567;SDS011;1798;48.486;9.232;2024-01-30T13:59:20;33.90;;;7.00;;
3567;SDS011;1798;48.486;9.232;2024-01-30T14:01:49;18.83;;;7.50;;
3567;SDS011;1798;48.486;9.232;2024-01-30T14:04:17;32.27;;;7.50;;
3567;SDS011;1798;48.486;9.232;2024-01-30T14:06:44;14.00;;;6.80;;
3567;SDS011;1798;48.486;9.232;2024-01-30T14:09:11;14.37;;;6.93;;
3567;SDS011;1798;48.486;9.232;2024-01-30T14:11:39;15.53;;;6.20;;
3567;SDS011;1798;48.486;9.232;2024-01-30T14:14:06;9.87;;;5.70;;
3567;SDS011;1798;48.486;9.232;2024-01-30T14:16:33;14.00;;;7.43;;
3567;SDS011;1798;48.486;9.232;2024-01-30T14:19:00;11.63;;;7.17;;
3567;SDS011;1798;48.486;9.232;2024-01-30T14:21:28;13.30;;;6.83;;
3567;SDS011;1798;48.486;9.232;2024-01-30T14:23:54;16.50;;;8.03;;
3567;SDS011;1798;48.486;9.232;2024-01-30T14:26:22;15.37;;;6.53;;
3567;SDS011;1798;48.486;9.232;2024-01-30T14:28:50;16.63;;;7.60;;
3567;SDS011;1798;48.486;9.232;2024-01-30T14:31:17;14.10;;;7.43;;
3567;SDS011;1798;48.486;9.232;2024-01-30T14:33:45;15.23;;;7.63;;
3567;SDS011;1798;48.486;9.232;2024-01-30T14:36:11;13.23;;;8.50;;
3567;SDS011;1798;48.486;9.232;2024-01-30T14:38:40;12.60;;;6.40;;
3567;SDS011;1798;48.486;9.232;2024-01-30T14:41:07;20.50;;;7.10;;
3567;SDS011;1798;48.486;9.232;2024-01-30T14:43:33;14.30;;;6.77;;
3567;SDS011;1798;48.486;9.232;2024-01-30T14:46:02;11.37;;;7.00;;
3567;SDS011;1798;48.486;9.232;2024-01-30T14:48:37;13.90;;;7.43;;
3567;SDS011;1798;48.486;9.232;2024-01-30T14:51:06;10.23;;;5.87;;
3567;SDS011;1798;48.486;9.232;2024-01-30T14:53:33;15.77;;;7.37;;
3567;SDS011;1798;48.486;9.232;2024-01-30T14:56:01;12.90;;;7.27;;
3567;SDS011;1798;48.486;9.232;2024-01-30T14:58:29;12.13;;;6.13;;